sensor_id;sensor_type;location;lat;lon;timestamp;P1;durP1;ratioP1;P2;durP2;ratioP2
37205;SDS011;23099;42.636;23.198;2022-09-16T00:00:17;12.77;;;0.90;;
37205;SDS011;23099;42.636;23.198;2022-09-16T00:02:44;8.60;;;0.70;;
37205;SDS011;23099;42.636;23.198;2022-09-16T00:05:12;10.68;;;0.90;;
37205;SDS011;23099;42.636;23.198;2022-09-16T00:07:39;8.27;;;1.00;;
37205;SDS011;23099;42.636;23.198;2022-09-16T00:10:06;7.97;;;1.00;;
37205;SDS011;23099;42.636;23.198;2022-09-16T00:12:34;9.07;;;0.80;;
37205;SDS011;23099;42.636;23.198;2022-09-16T00:15:00;6.63;;;0.90;;
37205;SDS011;23099;42.636;23.198;2022-09-16T00:17:28;8.88;;;0.70;;
37205;SDS011;23099;42.636;23.198;2022-09-16T00:19:55;9.68;;;1.00;;
37205;SDS011;23099;42.636;23.198;2022-09-16T00:22:23;10.85;;;1.20;;
37205;SDS011;23099;42.636;23.198;2022-09-16T00:24:50;7.15;;;0.90;;
37205;SDS011;23099;42.636;23.198;2022-09-16T00:27:17;11.60;;;0.85;;
37205;SDS011;23099;42.636;23.198;2022-09-16T00:29:43;9.13;;;0.90;;
37205;SDS011;23099;42.636;23.198;2022-09-16T00:32:10;8.65;;;0.95;;
37205;SDS011;23099;42.636;23.198;2022-09-16T00:34:37;9.25;;;0.88;;
37205;SDS011;23099;42.636;23.198;2022-09-16T00:37:03;10.85;;;1.20;;
37205;SDS011;23099;42.636;23.198;2022-09-16T00:39:33;12.02;;;1.13;;
37205;SDS011;23099;42.636;23.198;2022-09-16T00:47:19;6.80;;;0.82;;
37205;SDS011;23099;42.636;23.198;2022-09-16T00:49:48;10.93;;;1.00;;
37205;SDS011;23099;42.636;23.198;2022-09-16T00:52:16;11.70;;;0.90;;
37205;SDS011;23099;42.636;23.198;2022-09-16T00:54:46;10.75;;;1.10;;
37205;SDS011;23099;42.636;23.198;2022-09-16T00:59:40;6.07;;;0.70;;
37205;SDS011;23099;42.636;23.198;2022-09-16T01:02:12;7.38;;;0.88;;
37205;SDS011;23099;42.636;23.198;2022-09-16T01:04:41;6.70;;;0.90;;
37205;SDS011;23099;42.636;23.198;2022-09-16T01:07:12;9.27;;;1.17;;
37205;SDS011;23099;42.636;23.198;2022-09-16T01:09:40;7.18;;;0.70;;
37205;SDS011;23099;42.636;23.198;2022-09-16T01:12:08;7.43;;;0.98;;
37205;SDS011;23099;42.636;23.198;2022-09-16T01:14:35;6.35;;;0.80;;
37205;SDS011;23099;42.636;23.198;2022-09-16T01:17:25;8.63;;;0.80;;
37205;SDS011;23099;42.636;23.198;2022-09-16T01:20:02;7.63;;;0.85;;
37205;SDS011;23099;42.636;23.198;2022-09-16T01:22:44;14.52;;;1.00;;
37205;SDS011;23099;42.636;23.198;2022-09-16T01:25:26;6.22;;;0.80;;
37205;SDS011;23099;42.636;23.198;2022-09-16T01:31:01;8.80;;;1.02;;
37205;SDS011;23099;42.636;23.198;2022-09-16T01:33:36;8.00;;;0.82;;
37205;SDS011;23099;42.636;23.198;2022-09-16T01:38:50;9.05;;;1.05;;
37205;SDS011;23099;42.636;23.198;2022-09-16T01:41:27;9.52;;;1.10;;
37205;SDS011;23099;42.636;23.198;2022-09-16T01:44:05;7.77;;;1.00;;
37205;SDS011;23099;42.636;23.198;2022-09-16T01:46:45;12.63;;;0.90;;
37205;SDS011;23099;42.636;23.198;2022-09-16T01:49:17;9.63;;;0.85;;
37205;SDS011;23099;42.636;23.198;2022-09-16T01:51:49;15.02;;;1.17;;
37205;SDS011;23099;42.636;23.198;2022-09-16T01:54:25;8.82;;;1.23;;
37205;SDS011;23099;42.636;23.198;2022-09-16T01:56:56;10.23;;;1.05;;
37205;SDS011;23099;42.636;23.198;2022-09-16T01:59:32;16.95;;;1.20;;
37205;SDS011;23099;42.636;23.198;2022-09-16T02:02:05;15.88;;;1.20;;
37205;SDS011;23099;42.636;23.198;2022-09-16T02:04:42;15.48;;;1.73;;
37205;SDS011;23099;42.636;23.198;2022-09-16T02:07:14;13.07;;;1.65;;
37205;SDS011;23099;42.636;23.198;2022-09-16T02:09:45;12.73;;;1.42;;
37205;SDS011;23099;42.636;23.198;2022-09-16T02:12:17;16.73;;;1.35;;
37205;SDS011;23099;42.636;23.198;2022-09-16T02:14:47;17.45;;;2.10;;
37205;SDS011;23099;42.636;23.198;2022-09-16T02:17:19;21.10;;;2.20;;
37205;SDS011;23099;42.636;23.198;2022-09-16T02:19:50;18.73;;;2.25;;
37205;SDS011;23099;42.636;23.198;2022-09-16T02:22:23;29.27;;;2.63;;
37205;SDS011;23099;42.636;23.198;2022-09-16T02:24:54;16.42;;;1.52;;
37205;SDS011;23099;42.636;23.198;2022-09-16T02:27:23;17.13;;;2.00;;
37205;SDS011;23099;42.636;23.198;2022-09-16T02:29:53;19.10;;;1.85;;
37205;SDS011;23099;42.636;23.198;2022-09-16T02:32:25;16.02;;;1.70;;
37205;SDS011;23099;42.636;23.198;2022-09-16T02:34:53;21.63;;;2.15;;
37205;SDS011;23099;42.636;23.198;2022-09-16T02:37:23;15.90;;;1.58;;
37205;SDS011;23099;42.636;23.198;2022-09-16T02:39:55;18.08;;;1.45;;
37205;SDS011;23099;42.636;23.198;2022-09-16T02:42:26;13.40;;;1.40;;
37205;SDS011;23099;42.636;23.198;2022-09-16T02:44:53;14.27;;;1.42;;
37205;SDS011;23099;42.636;23.198;2022-09-16T02:47:21;18.50;;;1.33;;
37205;SDS011;23099;42.636;23.198;2022-09-16T02:49:59;18.77;;;1.55;;
37205;SDS011;23099;42.636;23.198;2022-09-16T02:52:33;13.40;;;1.77;;
37205;SDS011;23099;42.636;23.198;2022-09-16T02:55:04;16.92;;;1.38;;
37205;SDS011;23099;42.636;23.198;2022-09-16T02:57:38;12.57;;;1.63;;
37205;SDS011;23099;42.636;23.198;2022-09-16T03:00:06;10.55;;;1.45;;
37205;SDS011;23099;42.636;23.198;2022-09-16T03:02:35;16.85;;;1.95;;
37205;SDS011;23099;42.636;23.198;2022-09-16T03:05:02;13.27;;;1.33;;
37205;SDS011;23099;42.636;23.198;2022-09-16T03:07:30;17.48;;;1.90;;
37205;SDS011;23099;42.636;23.198;2022-09-16T03:09:57;16.13;;;1.98;;
37205;SDS011;23099;42.636;23.198;2022-09-16T03:12:27;10.75;;;1.55;;
37205;SDS011;23099;42.636;23.198;2022-09-16T03:18:12;14.38;;;1.88;;
37205;SDS011;23099;42.636;23.198;2022-09-16T03:20:50;16.33;;;1.70;;
37205;SDS011;23099;42.636;23.198;2022-09-16T03:23:26;14.52;;;1.73;;
37205;SDS011;23099;42.636;23.198;2022-09-16T03:26:09;10.48;;;1.48;;
37205;SDS011;23099;42.636;23.198;2022-09-16T03:28:44;10.85;;;1.13;;
37205;SDS011;23099;42.636;23.198;2022-09-16T03:31:20;10.02;;;1.02;;
37205;SDS011;23099;42.636;23.198;2022-09-16T03:33:56;11.30;;;1.00;;
37205;SDS011;23099;42.636;23.198;2022-09-16T03:36:30;7.05;;;0.90;;
37205;SDS011;23099;42.636;23.198;2022-09-16T03:39:00;11.88;;;1.25;;
37205;SDS011;23099;42.636;23.198;2022-09-16T03:41:29;10.75;;;1.13;;
37205;SDS011;23099;42.636;23.198;2022-09-16T03:43:58;12.88;;;1.30;;
37205;SDS011;23099;42.636;23.198;2022-09-16T03:46:26;12.48;;;1.20;;
37205;SDS011;23099;42.636;23.198;2022-09-16T03:48:54;14.38;;;1.25;;
37205;SDS011;23099;42.636;23.198;2022-09-16T03:51:22;10.00;;;1.13;;
37205;SDS011;23099;42.636;23.198;2022-09-16T03:53:50;8.63;;;1.63;;
37205;SDS011;23099;42.636;23.198;2022-09-16T03:56:16;7.10;;;0.98;;
37205;SDS011;23099;42.636;23.198;2022-09-16T03:58:43;9.73;;;1.00;;
37205;SDS011;23099;42.636;23.198;2022-09-16T04:01:13;10.48;;;0.90;;
37205;SDS011;23099;42.636;23.198;2022-09-16T04:03:40;11.60;;;1.00;;
37205;SDS011;23099;42.636;23.198;2022-09-16T04:06:08;8.75;;;1.33;;
37205;SDS011;23099;42.636;23.198;2022-09-16T04:08:35;18.02;;;1.40;;
37205;SDS011;23099;42.636;23.198;2022-09-16T04:13:30;11.93;;;1.25;;
37205;SDS011;23099;42.636;23.198;2022-09-16T04:15:58;18.90;;;1.30;;
37205;SDS011;23099;42.636;23.198;2022-09-16T04:18:26;11.90;;;1.17;;
37205;SDS011;23099;42.636;23.198;2022-09-16T04:20:54;10.70;;;1.13;;
37205;SDS011;23099;42.636;23.198;2022-09-16T04:23:23;9.57;;;1.10;;
37205;SDS011;23099;42.636;23.198;2022-09-16T04:25:54;10.80;;;1.10;;
37205;SDS011;23099;42.636;23.198;2022-09-16T04:28:21;13.20;;;1.10;;
37205;SDS011;23099;42.636;23.198;2022-09-16T04:30:48;10.25;;;1.80;;
37205;SDS011;23099;42.636;23.198;2022-09-16T04:33:15;10.95;;;1.52;;
37205;SDS011;23099;42.636;23.198;2022-09-16T04:35:41;8.98;;;1.17;;
37205;SDS011;23099;42.636;23.198;2022-09-16T04:38:08;9.45;;;1.10;;
37205;SDS011;23099;42.636;23.198;2022-09-16T04:40:36;13.20;;;1.52;;
37205;SDS011;23099;42.636;23.198;2022-09-16T04:43:04;9.00;;;1.10;;
37205;SDS011;23099;42.636;23.198;2022-09-16T04:45:31;12.70;;;1.92;;
37205;SDS011;23099;42.636;23.198;2022-09-16T04:47:57;10.02;;;1.48;;
37205;SDS011;23099;42.636;23.198;2022-09-16T04:50:24;7.90;;;1.00;;
37205;SDS011;23099;42.636;23.198;2022-09-16T04:52:51;9.15;;;1.00;;
37205;SDS011;23099;42.636;23.198;2022-09-16T04:55:18;12.20;;;1.20;;
37205;SDS011;23099;42.636;23.198;2022-09-16T04:57:48;17.42;;;1.25;;
37205;SDS011;23099;42.636;23.198;2022-09-16T05:02:42;14.63;;;1.52;;
37205;SDS011;23099;42.636;23.198;2022-09-16T05:05:09;13.05;;;1.50;;
37205;SDS011;23099;42.636;23.198;2022-09-16T05:07:36;11.30;;;1.42;;
37205;SDS011;23099;42.636;23.198;2022-09-16T05:10:03;10.90;;;1.23;;
37205;SDS011;23099;42.636;23.198;2022-09-16T05:12:30;15.13;;;1.40;;
37205;SDS011;23099;42.636;23.198;2022-09-16T05:14:58;7.97;;;1.30;;
37205;SDS011;23099;42.636;23.198;2022-09-16T05:17:27;9.48;;;1.55;;
37205;SDS011;23099;42.636;23.198;2022-09-16T05:19:54;11.82;;;1.38;;
37205;SDS011;23099;42.636;23.198;2022-09-16T05:22:21;10.52;;;1.50;;
37205;SDS011;23099;42.636;23.198;2022-09-16T05:24:48;7.88;;;1.05;;
37205;SDS011;23099;42.636;23.198;2022-09-16T05:27:15;14.15;;;1.92;;
37205;SDS011;23099;42.636;23.198;2022-09-16T05:29:41;11.32;;;1.50;;
37205;SDS011;23099;42.636;23.198;2022-09-16T05:32:09;8.93;;;1.27;;
37205;SDS011;23099;42.636;23.198;2022-09-16T05:34:36;13.23;;;1.23;;
37205;SDS011;23099;42.636;23.198;2022-09-16T05:37:03;8.75;;;1.30;;
37205;SDS011;23099;42.636;23.198;2022-09-16T05:39:30;14.50;;;1.48;;
37205;SDS011;23099;42.636;23.198;2022-09-16T05:41:57;7.93;;;1.00;;
37205;SDS011;23099;42.636;23.198;2022-09-16T05:44:25;9.43;;;1.40;;
37205;SDS011;23099;42.636;23.198;2022-09-16T05:46:53;11.57;;;1.30;;
37205;SDS011;23099;42.636;23.198;2022-09-16T05:49:22;12.85;;;1.35;;
37205;SDS011;23099;42.636;23.198;2022-09-16T05:51:50;12.10;;;1.60;;
37205;SDS011;23099;42.636;23.198;2022-09-16T05:54:17;11.38;;;1.35;;
37205;SDS011;23099;42.636;23.198;2022-09-16T05:56:45;14.25;;;1.42;;
37205;SDS011;23099;42.636;23.198;2022-09-16T05:59:12;9.83;;;1.10;;
37205;SDS011;23099;42.636;23.198;2022-09-16T06:01:39;15.80;;;2.05;;
37205;SDS011;23099;42.636;23.198;2022-09-16T06:04:08;11.63;;;1.55;;
37205;SDS011;23099;42.636;23.198;2022-09-16T06:06:38;10.48;;;1.40;;
37205;SDS011;23099;42.636;23.198;2022-09-16T06:09:06;10.50;;;1.20;;
37205;SDS011;23099;42.636;23.198;2022-09-16T06:11:35;13.93;;;1.58;;
37205;SDS011;23099;42.636;23.198;2022-09-16T06:14:03;7.13;;;1.13;;
37205;SDS011;23099;42.636;23.198;2022-09-16T06:16:31;12.05;;;0.90;;
37205;SDS011;23099;42.636;23.198;2022-09-16T06:18:59;13.30;;;1.10;;
37205;SDS011;23099;42.636;23.198;2022-09-16T06:21:27;9.30;;;1.35;;
37205;SDS011;23099;42.636;23.198;2022-09-16T06:23:56;10.43;;;1.10;;
37205;SDS011;23099;42.636;23.198;2022-09-16T06:26:23;12.63;;;1.15;;
37205;SDS011;23099;42.636;23.198;2022-09-16T06:28:51;10.93;;;1.95;;
37205;SDS011;23099;42.636;23.198;2022-09-16T06:31:20;14.80;;;1.33;;
37205;SDS011;23099;42.636;23.198;2022-09-16T06:33:48;11.30;;;1.70;;
37205;SDS011;23099;42.636;23.198;2022-09-16T06:36:16;15.10;;;2.03;;
37205;SDS011;23099;42.636;23.198;2022-09-16T06:38:44;15.43;;;1.85;;
37205;SDS011;23099;42.636;23.198;2022-09-16T06:41:13;9.90;;;1.88;;
37205;SDS011;23099;42.636;23.198;2022-09-16T06:43:40;10.43;;;2.10;;
37205;SDS011;23099;42.636;23.198;2022-09-16T06:46:08;12.73;;;1.42;;
37205;SDS011;23099;42.636;23.198;2022-09-16T06:48:38;12.32;;;1.40;;
37205;SDS011;23099;42.636;23.198;2022-09-16T06:51:08;15.35;;;1.30;;
37205;SDS011;23099;42.636;23.198;2022-09-16T06:53:38;13.48;;;1.60;;
37205;SDS011;23099;42.636;23.198;2022-09-16T06:56:06;11.15;;;1.40;;
37205;SDS011;23099;42.636;23.198;2022-09-16T06:58:37;11.75;;;1.27;;
37205;SDS011;23099;42.636;23.198;2022-09-16T07:01:05;11.02;;;1.52;;
37205;SDS011;23099;42.636;23.198;2022-09-16T07:03:32;12.73;;;1.20;;
37205;SDS011;23099;42.636;23.198;2022-09-16T07:06:02;9.68;;;1.30;;
37205;SDS011;23099;42.636;23.198;2022-09-16T07:08:29;9.23;;;1.35;;
37205;SDS011;23099;42.636;23.198;2022-09-16T07:10:57;11.43;;;0.98;;
37205;SDS011;23099;42.636;23.198;2022-09-16T07:13:25;9.60;;;1.30;;
37205;SDS011;23099;42.636;23.198;2022-09-16T07:15:53;10.07;;;1.38;;
37205;SDS011;23099;42.636;23.198;2022-09-16T07:20:46;13.93;;;1.20;;
37205;SDS011;23099;42.636;23.198;2022-09-16T07:23:13;12.00;;;1.42;;
37205;SDS011;23099;42.636;23.198;2022-09-16T07:25:39;13.48;;;1.00;;
37205;SDS011;23099;42.636;23.198;2022-09-16T07:28:06;13.80;;;1.13;;
37205;SDS011;23099;42.636;23.198;2022-09-16T07:30:33;14.32;;;1.10;;
37205;SDS011;23099;42.636;23.198;2022-09-16T07:33:01;11.02;;;1.42;;
37205;SDS011;23099;42.636;23.198;2022-09-16T07:35:28;10.05;;;1.27;;
37205;SDS011;23099;42.636;23.198;2022-09-16T07:37:54;13.48;;;1.17;;
37205;SDS011;23099;42.636;23.198;2022-09-16T07:40:21;13.52;;;1.23;;
37205;SDS011;23099;42.636;23.198;2022-09-16T07:42:48;14.23;;;1.20;;
37205;SDS011;23099;42.636;23.198;2022-09-16T07:45:14;11.98;;;0.88;;
37205;SDS011;23099;42.636;23.198;2022-09-16T07:47:41;15.13;;;1.10;;
37205;SDS011;23099;42.636;23.198;2022-09-16T07:50:09;6.53;;;0.85;;
37205;SDS011;23099;42.636;23.198;2022-09-16T07:52:36;17.13;;;1.60;;
37205;SDS011;23099;42.636;23.198;2022-09-16T07:55:03;11.60;;;1.27;;
37205;SDS011;23099;42.636;23.198;2022-09-16T07:57:30;11.60;;;1.10;;
37205;SDS011;23099;42.636;23.198;2022-09-16T07:59:57;11.43;;;1.10;;
37205;SDS011;23099;42.636;23.198;2022-09-16T08:02:24;13.68;;;1.08;;
37205;SDS011;23099;42.636;23.198;2022-09-16T08:04:51;13.55;;;1.20;;
37205;SDS011;23099;42.636;23.198;2022-09-16T08:07:19;10.98;;;1.02;;
37205;SDS011;23099;42.636;23.198;2022-09-16T08:09:46;9.85;;;0.75;;
37205;SDS011;23099;42.636;23.198;2022-09-16T08:12:13;15.10;;;1.05;;
37205;SDS011;23099;42.636;23.198;2022-09-16T08:14:40;11.77;;;1.33;;
37205;SDS011;23099;42.636;23.198;2022-09-16T08:17:06;11.10;;;0.98;;
37205;SDS011;23099;42.636;23.198;2022-09-16T08:19:33;16.10;;;1.13;;
37205;SDS011;23099;42.636;23.198;2022-09-16T08:22:00;16.20;;;1.38;;
37205;SDS011;23099;42.636;23.198;2022-09-16T08:24:28;8.88;;;1.13;;
37205;SDS011;23099;42.636;23.198;2022-09-16T08:29:21;9.52;;;0.82;;
37205;SDS011;23099;42.636;23.198;2022-09-16T08:31:49;9.02;;;0.98;;
37205;SDS011;23099;42.636;23.198;2022-09-16T08:34:16;9.40;;;1.00;;
37205;SDS011;23099;42.636;23.198;2022-09-16T08:36:43;15.17;;;1.03;;
37205;SDS011;23099;42.636;23.198;2022-09-16T08:39:10;11.80;;;0.90;;
37205;SDS011;23099;42.636;23.198;2022-09-16T08:41:44;23.05;;;1.38;;
37205;SDS011;23099;42.636;23.198;2022-09-16T08:44:22;10.32;;;1.52;;
37205;SDS011;23099;42.636;23.198;2022-09-16T08:46:58;17.02;;;1.30;;
37205;SDS011;23099;42.636;23.198;2022-09-16T08:49:30;14.82;;;1.40;;
37205;SDS011;23099;42.636;23.198;2022-09-16T08:52:02;7.05;;;0.90;;
37205;SDS011;23099;42.636;23.198;2022-09-16T08:54:36;11.65;;;1.33;;
37205;SDS011;23099;42.636;23.198;2022-09-16T08:57:15;10.18;;;1.10;;
37205;SDS011;23099;42.636;23.198;2022-09-16T08:59:47;13.07;;;0.90;;
37205;SDS011;23099;42.636;23.198;2022-09-16T09:02:23;14.93;;;1.35;;
37205;SDS011;23099;42.636;23.198;2022-09-16T09:05:05;10.05;;;1.35;;
37205;SDS011;23099;42.636;23.198;2022-09-16T09:07:43;11.27;;;1.35;;
37205;SDS011;23099;42.636;23.198;2022-09-16T09:10:19;10.50;;;1.40;;
37205;SDS011;23099;42.636;23.198;2022-09-16T09:12:54;8.45;;;1.10;;
37205;SDS011;23099;42.636;23.198;2022-09-16T09:15:30;9.90;;;1.10;;
37205;SDS011;23099;42.636;23.198;2022-09-16T09:18:06;9.77;;;1.02;;
37205;SDS011;23099;42.636;23.198;2022-09-16T09:20:44;11.00;;;1.13;;
37205;SDS011;23099;42.636;23.198;2022-09-16T09:23:22;11.25;;;1.05;;
37205;SDS011;23099;42.636;23.198;2022-09-16T09:31:23;10.25;;;0.70;;
37205;SDS011;23099;42.636;23.198;2022-09-16T09:33:58;12.13;;;1.00;;
37205;SDS011;23099;42.636;23.198;2022-09-16T09:39:34;11.27;;;1.30;;
37205;SDS011;23099;42.636;23.198;2022-09-16T09:42:10;9.98;;;1.10;;
37205;SDS011;23099;42.636;23.198;2022-09-16T09:44:51;13.20;;;0.90;;
37205;SDS011;23099;42.636;23.198;2022-09-16T09:47:21;10.10;;;1.15;;
37205;SDS011;23099;42.636;23.198;2022-09-16T09:49:50;9.00;;;1.30;;
37205;SDS011;23099;42.636;23.198;2022-09-16T09:52:22;10.73;;;1.15;;
37205;SDS011;23099;42.636;23.198;2022-09-16T09:54:53;7.82;;;1.15;;
37205;SDS011;23099;42.636;23.198;2022-09-16T09:57:23;11.07;;;1.10;;
37205;SDS011;23099;42.636;23.198;2022-09-16T09:59:59;10.57;;;0.98;;
37205;SDS011;23099;42.636;23.198;2022-09-16T10:02:30;14.88;;;1.23;;
37205;SDS011;23099;42.636;23.198;2022-09-16T10:04:58;18.95;;;1.52;;
37205;SDS011;23099;42.636;23.198;2022-09-16T10:09:54;8.57;;;1.23;;
37205;SDS011;23099;42.636;23.198;2022-09-16T10:12:26;11.93;;;1.30;;
37205;SDS011;23099;42.636;23.198;2022-09-16T10:14:54;14.95;;;1.90;;
37205;SDS011;23099;42.636;23.198;2022-09-16T10:17:23;11.10;;;1.30;;
37205;SDS011;23099;42.636;23.198;2022-09-16T10:19:54;12.32;;;1.38;;
37205;SDS011;23099;42.636;23.198;2022-09-16T10:22:23;12.07;;;1.27;;
37205;SDS011;23099;42.636;23.198;2022-09-16T10:24:53;8.38;;;0.80;;
37205;SDS011;23099;42.636;23.198;2022-09-16T10:27:23;11.95;;;1.23;;
37205;SDS011;23099;42.636;23.198;2022-09-16T10:30:02;12.35;;;0.80;;
37205;SDS011;23099;42.636;23.198;2022-09-16T10:32:31;8.27;;;0.98;;
37205;SDS011;23099;42.636;23.198;2022-09-16T10:35:05;9.40;;;0.90;;
37205;SDS011;23099;42.636;23.198;2022-09-16T10:37:32;8.45;;;1.10;;
37205;SDS011;23099;42.636;23.198;2022-09-16T10:39:59;6.90;;;0.70;;
37205;SDS011;23099;42.636;23.198;2022-09-16T10:42:29;9.48;;;0.88;;
37205;SDS011;23099;42.636;23.198;2022-09-16T10:44:57;10.02;;;0.90;;
37205;SDS011;23099;42.636;23.198;2022-09-16T10:47:31;7.43;;;0.90;;
37205;SDS011;23099;42.636;23.198;2022-09-16T10:50:00;7.00;;;0.90;;
37205;SDS011;23099;42.636;23.198;2022-09-16T10:52:31;8.35;;;1.27;;
37205;SDS011;23099;42.636;23.198;2022-09-16T10:55:11;11.60;;;1.38;;
37205;SDS011;23099;42.636;23.198;2022-09-16T10:57:46;4.72;;;1.40;;
37205;SDS011;23099;42.636;23.198;2022-09-16T11:00:14;5.68;;;1.00;;
37205;SDS011;23099;42.636;23.198;2022-09-16T11:02:49;5.90;;;1.40;;
37205;SDS011;23099;42.636;23.198;2022-09-16T11:05:29;7.07;;;1.05;;
37205;SDS011;23099;42.636;23.198;2022-09-16T11:08:01;6.32;;;0.75;;
37205;SDS011;23099;42.636;23.198;2022-09-16T11:10:38;5.38;;;0.80;;
37205;SDS011;23099;42.636;23.198;2022-09-16T11:13:14;5.80;;;0.75;;
37205;SDS011;23099;42.636;23.198;2022-09-16T11:15:50;3.35;;;0.80;;
37205;SDS011;23099;42.636;23.198;2022-09-16T11:18:28;9.27;;;0.98;;
37205;SDS011;23099;42.636;23.198;2022-09-16T11:21:10;5.60;;;0.90;;
37205;SDS011;23099;42.636;23.198;2022-09-16T11:23:54;3.55;;;0.60;;
37205;SDS011;23099;42.636;23.198;2022-09-16T11:26:32;3.63;;;0.73;;
37205;SDS011;23099;42.636;23.198;2022-09-16T11:29:15;7.95;;;1.35;;
37205;SDS011;23099;42.636;23.198;2022-09-16T11:31:56;2.22;;;0.43;;
37205;SDS011;23099;42.636;23.198;2022-09-16T11:34:41;4.32;;;0.60;;
37205;SDS011;23099;42.636;23.198;2022-09-16T11:37:19;6.28;;;0.57;;
37205;SDS011;23099;42.636;23.198;2022-09-16T11:40:07;3.80;;;0.50;;
37205;SDS011;23099;42.636;23.198;2022-09-16T11:42:41;5.80;;;0.68;;
37205;SDS011;23099;42.636;23.198;2022-09-16T11:45:19;2.80;;;0.40;;
37205;SDS011;23099;42.636;23.198;2022-09-16T11:47:59;4.43;;;0.50;;
37205;SDS011;23099;42.636;23.198;2022-09-16T11:50:43;8.45;;;0.50;;
37205;SDS011;23099;42.636;23.198;2022-09-16T11:53:23;1.17;;;0.30;;
37205;SDS011;23099;42.636;23.198;2022-09-16T11:56:03;1.88;;;0.30;;
37205;SDS011;23099;42.636;23.198;2022-09-16T11:58:36;1.80;;;0.30;;
37205;SDS011;23099;42.636;23.198;2022-09-16T12:01:12;2.20;;;0.38;;
37205;SDS011;23099;42.636;23.198;2022-09-16T12:03:45;1.73;;;0.30;;
37205;SDS011;23099;42.636;23.198;2022-09-16T12:06:21;2.80;;;0.30;;
37205;SDS011;23099;42.636;23.198;2022-09-16T12:08:55;2.30;;;0.30;;
37205;SDS011;23099;42.636;23.198;2022-09-16T12:11:26;1.60;;;0.20;;
37205;SDS011;23099;42.636;23.198;2022-09-16T12:14:00;6.13;;;0.32;;
37205;SDS011;23099;42.636;23.198;2022-09-16T12:16:35;1.98;;;0.30;;
37205;SDS011;23099;42.636;23.198;2022-09-16T12:19:09;2.33;;;0.60;;
37205;SDS011;23099;42.636;23.198;2022-09-16T12:21:44;1.98;;;0.30;;
37205;SDS011;23099;42.636;23.198;2022-09-16T12:24:14;1.50;;;0.20;;
37205;SDS011;23099;42.636;23.198;2022-09-16T12:26:47;4.43;;;0.30;;
37205;SDS011;23099;42.636;23.198;2022-09-16T12:29:17;2.45;;;0.30;;
37205;SDS011;23099;42.636;23.198;2022-09-16T12:31:49;1.90;;;0.30;;
37205;SDS011;23099;42.636;23.198;2022-09-16T12:34:22;1.95;;;0.30;;
37205;SDS011;23099;42.636;23.198;2022-09-16T12:36:57;3.10;;;0.30;;
37205;SDS011;23099;42.636;23.198;2022-09-16T12:39:27;3.80;;;0.32;;
37205;SDS011;23099;42.636;23.198;2022-09-16T12:42:05;2.85;;;0.20;;
37205;SDS011;23099;42.636;23.198;2022-09-16T12:45:04;1.92;;;0.30;;
37205;SDS011;23099;42.636;23.198;2022-09-16T12:47:53;4.97;;;0.30;;
37205;SDS011;23099;42.636;23.198;2022-09-16T12:50:42;1.40;;;0.35;;
37205;SDS011;23099;42.636;23.198;2022-09-16T12:53:32;2.88;;;0.32;;
37205;SDS011;23099;42.636;23.198;2022-09-16T12:56:13;1.85;;;0.50;;
37205;SDS011;23099;42.636;23.198;2022-09-16T12:59:06;2.05;;;0.30;;
37205;SDS011;23099;42.636;23.198;2022-09-16T13:01:49;3.00;;;0.32;;
37205;SDS011;23099;42.636;23.198;2022-09-16T13:04:18;3.40;;;0.30;;
37205;SDS011;23099;42.636;23.198;2022-09-16T13:06:48;5.40;;;0.40;;
37205;SDS011;23099;42.636;23.198;2022-09-16T13:09:22;3.95;;;0.40;;
37205;SDS011;23099;42.636;23.198;2022-09-16T13:11:52;5.53;;;0.40;;
37205;SDS011;23099;42.636;23.198;2022-09-16T13:14:21;7.60;;;0.90;;
37205;SDS011;23099;42.636;23.198;2022-09-16T13:16:53;7.20;;;0.60;;
37205;SDS011;23099;42.636;23.198;2022-09-16T13:19:26;4.43;;;0.50;;
37205;SDS011;23099;42.636;23.198;2022-09-16T13:22:08;6.25;;;0.50;;
37205;SDS011;23099;42.636;23.198;2022-09-16T13:24:44;3.00;;;0.50;;
37205;SDS011;23099;42.636;23.198;2022-09-16T13:27:19;5.22;;;0.50;;
37205;SDS011;23099;42.636;23.198;2022-09-16T13:29:51;5.90;;;0.82;;
37205;SDS011;23099;42.636;23.198;2022-09-16T13:32:36;5.18;;;0.50;;
37205;SDS011;23099;42.636;23.198;2022-09-16T13:35:19;10.10;;;0.60;;
37205;SDS011;23099;42.636;23.198;2022-09-16T13:37:49;4.72;;;0.80;;
37205;SDS011;23099;42.636;23.198;2022-09-16T13:40:21;6.45;;;0.80;;
37205;SDS011;23099;42.636;23.198;2022-09-16T13:42:49;4.78;;;0.57;;
37205;SDS011;23099;42.636;23.198;2022-09-16T13:45:30;6.75;;;0.70;;
37205;SDS011;23099;42.636;23.198;2022-09-16T13:47:58;4.07;;;0.60;;
37205;SDS011;23099;42.636;23.198;2022-09-16T13:50:31;6.35;;;0.60;;
37205;SDS011;23099;42.636;23.198;2022-09-16T13:53:07;5.68;;;0.85;;
37205;SDS011;23099;42.636;23.198;2022-09-16T13:55:36;5.88;;;0.90;;
37205;SDS011;23099;42.636;23.198;2022-09-16T13:58:05;4.90;;;0.90;;
37205;SDS011;23099;42.636;23.198;2022-09-16T14:00:44;5.15;;;1.00;;
37205;SDS011;23099;42.636;23.198;2022-09-16T14:03:28;4.80;;;0.80;;
37205;SDS011;23099;42.636;23.198;2022-09-16T14:09:07;4.63;;;0.75;;
37205;SDS011;23099;42.636;23.198;2022-09-16T14:11:45;3.97;;;0.68;;
37205;SDS011;23099;42.636;23.198;2022-09-16T14:14:21;3.95;;;0.80;;
37205;SDS011;23099;42.636;23.198;2022-09-16T14:16:50;4.95;;;0.90;;
37205;SDS011;23099;42.636;23.198;2022-09-16T14:19:22;9.98;;;0.60;;
37205;SDS011;23099;42.636;23.198;2022-09-16T14:21:59;5.22;;;0.80;;
37205;SDS011;23099;42.636;23.198;2022-09-16T14:24:32;7.00;;;0.80;;
37205;SDS011;23099;42.636;23.198;2022-09-16T14:27:01;7.15;;;0.85;;
37205;SDS011;23099;42.636;23.198;2022-09-16T14:29:28;4.15;;;0.70;;
37205;SDS011;23099;42.636;23.198;2022-09-16T14:31:55;7.30;;;0.75;;
37205;SDS011;23099;42.636;23.198;2022-09-16T14:34:23;5.10;;;0.95;;
37205;SDS011;23099;42.636;23.198;2022-09-16T14:36:54;6.50;;;0.75;;
37205;SDS011;23099;42.636;23.198;2022-09-16T14:39:21;7.32;;;0.75;;
37205;SDS011;23099;42.636;23.198;2022-09-16T14:41:50;5.32;;;1.00;;
37205;SDS011;23099;42.636;23.198;2022-09-16T14:44:22;7.65;;;1.10;;
37205;SDS011;23099;42.636;23.198;2022-09-16T14:46:56;4.63;;;1.00;;
37205;SDS011;23099;42.636;23.198;2022-09-16T14:49:27;7.43;;;1.10;;
37205;SDS011;23099;42.636;23.198;2022-09-16T14:51:56;5.88;;;1.02;;
37205;SDS011;23099;42.636;23.198;2022-09-16T14:54:24;9.20;;;1.10;;
37205;SDS011;23099;42.636;23.198;2022-09-16T14:56:56;8.63;;;1.05;;
37205;SDS011;23099;42.636;23.198;2022-09-16T14:59:25;6.70;;;1.15;;
37205;SDS011;23099;42.636;23.198;2022-09-16T15:01:55;9.18;;;0.80;;
37205;SDS011;23099;42.636;23.198;2022-09-16T15:04:26;4.63;;;0.80;;
37205;SDS011;23099;42.636;23.198;2022-09-16T15:07:06;7.25;;;0.80;;
37205;SDS011;23099;42.636;23.198;2022-09-16T15:09:37;4.88;;;0.90;;
37205;SDS011;23099;42.636;23.198;2022-09-16T15:12:15;5.63;;;0.80;;
37205;SDS011;23099;42.636;23.198;2022-09-16T15:14:48;4.90;;;1.10;;
37205;SDS011;23099;42.636;23.198;2022-09-16T15:19:45;5.05;;;0.80;;
37205;SDS011;23099;42.636;23.198;2022-09-16T15:22:15;5.35;;;1.02;;
37205;SDS011;23099;42.636;23.198;2022-09-16T15:24:43;5.45;;;0.80;;
37205;SDS011;23099;42.636;23.198;2022-09-16T15:27:19;5.30;;;0.85;;
37205;SDS011;23099;42.636;23.198;2022-09-16T15:29:47;5.57;;;0.82;;
37205;SDS011;23099;42.636;23.198;2022-09-16T15:32:20;6.28;;;0.80;;
37205;SDS011;23099;42.636;23.198;2022-09-16T15:35:00;9.38;;;1.63;;